Terminal Aerodrome Forecast
Issued by NWS

Home | Current Version | Previous Version | Graphics & Text | Print | Product List | Glossary On
Versions: 1 2 3 4 5 6 7 8 9 10 11 12 13 14 15 16 17 18
742
FTUS43 KBIS 061729
TAFDIK
TAF
KDIK 061729Z 0618/0718 27022G31KT P6SM SCT150
     FM062100 29031G42KT P6SM BKN120
     FM070900 31034G46KT P6SM BKN040
     FM071200 32034G46KT P6SM BKN025=

USA.gov is the U.S. government's official web portal to all federal, state and local government web resources and services.